Latest Weather Observations for Lucas Heights

IDN60801

Issued at 1:35 am EST Thursday 24 July 2014 (issued every 30 minutes, with the page automatically refreshed every 10 minutes)

About weather observations | Map of weather stations | Latest weather observations for NSW | Other Formats
Station Details ID: 066023 Name: LUCAS HEIGHTS AWS Lat: -34.05 Lon: 150.98 Height: 140.0 m
Data from the previous 72 hours. | See also: Recent months for locations in New South Wales
Date/Time
EST
Temp
°C
App
Temp
°C
Dew
Point
Rel
Hum
%
Delta-T
°C
Wind Press
QNH
hPa
Press
MSL
hPa
Rain
since 9 am
mm
Dir
 
Spd
km/h
Gust
km/h
Spd
kts
Gust
kts
24/01:15am 6.4 3.6 5.1 91 0.6 W 9 13 5 7 1022.4 - 0.0
24/01:00am 6.5 3.7 5.1 91 0.6 W 9 11 5 6 1022.4 - 0.0
24/12:45am 6.8 4.4 5.4 91 0.6 W 7 9 4 5 1022.4 - 0.0
24/12:30am 7.0 4.7 5.6 91 0.6 W 7 9 4 5 1022.6 - 0.0
24/12:15am 7.0 4.7 5.5 90 0.7 WNW 7 9 4 5 1022.6 - 0.0
24/12:00am 7.1 5.0 5.6 90 0.7 WNW 6 9 3 5 1022.8 - 0.0
 
Date/Time
EST
Temp
°C
App
Temp
°C
Dew
Point
Rel
Hum
%
Delta-T
°C
Wind Press
QNH
hPa
Press
MSL
hPa
Rain
since 9 am
mm
Dir
 
Spd
km/h
Gust
km/h
Spd
kts
Gust
kts
23/11:45pm 7.1 5.0 5.6 90 0.7 W 6 7 3 4 1022.9 - 0.0
23/11:30pm 7.1 4.8 5.5 89 0.7 WSW 7 9 4 5 1023.0 - 0.0
23/11:15pm 7.1 5.0 5.6 90 0.7 WSW 6 9 3 5 1022.9 - 0.0
23/11:00pm 7.5 5.8 5.8 89 0.8 W 4 6 2 3 1023.0 - 0.0
23/10:45pm 7.9 6.3 6.2 89 0.8 W 4 6 2 3 1023.2 - 0.0
23/10:30pm 8.2 7.0 6.5 89 0.8 WNW 2 4 1 2 1023.4 - 0.0
23/10:15pm 8.4 6.9 6.7 89 0.8 N 4 6 2 3 1023.5 - 0.0
23/10:00pm 8.7 6.7 6.9 88 0.8 NNE 7 9 4 5 1023.5 - 0.0
23/09:45pm 9.1 6.8 7.3 88 0.9 NE 9 11 5 6 1023.5 - 0.0
23/09:30pm 9.2 6.9 7.3 88 0.9 NE 9 13 5 7 1023.5 - 0.0
23/09:15pm 9.5 6.8 7.5 87 1.0 NE 11 13 6 7 1023.5 - 0.0
23/09:00pm 9.7 7.1 7.7 87 1.0 NE 11 13 6 7 1023.4 - 0.0
23/08:45pm 9.9 7.3 7.8 87 1.0 ENE 11 15 6 8 1023.3 - 0.0
23/08:30pm 9.9 7.3 7.7 86 1.1 ENE 11 13 6 7 1023.1 - 0.0
23/08:15pm 10.2 7.6 7.8 85 1.2 ENE 11 13 6 7 1023.2 - 0.0
23/08:00pm 10.3 7.7 7.9 85 1.2 ENE 11 13 6 7 1023.1 - 0.0
23/07:45pm 10.5 8.0 8.0 84 1.2 ENE 11 15 6 8 1023.0 - 0.0
23/07:30pm 10.8 8.3 8.1 83 1.3 ENE 11 15 6 8 1022.9 - 0.0
23/07:15pm 10.9 8.4 8.0 82 1.4 ENE 11 13 6 7 1022.8 - 0.0
23/07:00pm 11.3 8.4 8.3 82 1.5 ENE 13 15 7 8 1022.7 - 0.0
23/06:45pm 11.3 8.4 8.2 81 1.5 E 13 15 7 8 1022.7 - 0.0
23/06:30pm 11.6 8.7 8.2 79 1.7 E 13 15 7 8 1022.7 - 0.0
23/06:15pm 11.9 9.0 8.3 78 1.8 E 13 15 7 8 1022.7 - 0.0
23/06:00pm 12.2 9.7 8.4 77 1.9 E 11 13 6 7 1022.5 - 0.0
23/05:45pm 12.5 10.1 8.5 76 2.0 E 11 15 6 8 1022.4 - 0.0
23/05:30pm 12.6 10.1 8.4 75 2.1 E 11 15 6 8 1022.3 - 0.0
23/05:15pm 13.0 10.5 8.4 73 2.3 E 11 15 6 8 1022.2 - 0.0
23/05:00pm 13.3 10.9 8.5 72 2.4 E 11 15 6 8 1022.1 - 0.0
23/04:45pm 13.5 11.0 8.4 71 2.6 E 11 17 6 9 1022.1 - 0.0
23/04:30pm 13.8 11.0 8.5 70 2.7 E 13 19 7 10 1022.0 - 0.0
23/04:15pm 14.4 11.6 8.7 68 2.9 E 13 19 7 10 1021.9 - 0.0
23/04:00pm 14.7 11.9 8.7 67 3.1 E 13 17 7 9 1021.8 - 0.0
23/03:45pm 15.4 12.7 9.1 66 3.3 ENE 13 17 7 9 1021.8 - 0.0
23/03:30pm 15.6 13.0 9.3 66 3.3 E 13 15 7 8 1021.8 - 0.0
23/03:15pm 15.4 13.5 9.2 66 3.2 E 9 13 5 7 1021.7 - 0.0
23/03:00pm 15.6 13.2 8.7 63 3.5 E 11 15 6 8 1021.8 - 0.0
23/02:45pm 16.1 14.1 7.1 55 4.5 N 7 13 4 7 1021.8 - 0.0
23/02:30pm 16.9 14.9 7.2 52 4.9 - 7 15 4 8 1021.8 - 0.0
23/02:15pm 17.1 14.9 7.8 54 4.7 N 9 15 5 8 1021.9 - 0.0
23/02:00pm 16.5 14.3 7.7 56 4.5 NNE 9 15 5 8 1022.1 - 0.0
23/01:45pm 16.2 14.4 7.8 57 4.2 NNE 7 15 4 8 1022.2 - 0.0
23/01:30pm 16.0 14.5 8.3 60 3.9 NNE 6 9 3 5 1022.4 - 0.0
23/01:15pm 15.2 14.1 8.3 63 3.5 E 4 9 2 5 1022.7 - 0.0
23/01:00pm 15.0 13.7 7.6 61 3.7 NNW 4 7 2 4 1022.8 - 0.0
23/12:45pm 15.7 14.0 7.6 58 4.1 N 6 11 3 6 1023.0 - 0.0
23/12:30pm 16.6 14.6 8.8 60 4.0 N 9 15 5 8 1023.4 - 0.0
23/12:15pm 16.6 15.4 9.4 62 3.8 SSW 6 11 3 6 1023.7 - 0.0
23/12:00pm 15.6 14.2 8.9 64 3.5 ESE 6 9 3 5 1024.1 - 0.0
23/11:45am 14.9 13.9 8.7 66 3.2 S 4 6 2 3 1024.5 - 0.0
23/11:30am 14.7 13.7 8.7 67 3.1 SSW 4 7 2 4 1024.9 - 0.0
23/11:15am 14.3 13.2 8.5 68 2.9 NW 4 6 2 3 1025.1 - 0.0
23/11:00am 14.2 13.1 8.3 67 3.0 WNW 4 6 2 3 1025.3 - 0.0
23/10:45am 14.7 13.6 8.4 66 3.2 WSW 4 7 2 4 1025.4 - 0.0
23/10:30am 15.2 13.8 9.0 66 3.2 SSE 6 9 3 5 1025.6 - 0.0
23/10:15am 14.6 13.1 8.6 67 3.1 SE 6 9 3 5 1025.7 - 0.0
23/10:00am 14.3 12.7 8.8 69 2.8 SE 7 13 4 7 1025.7 - 0.0
23/09:45am 14.0 12.1 9.1 72 2.5 SE 9 13 5 7 1025.6 - 0.0
23/09:30am 13.5 11.8 9.9 79 1.9 SSE 9 13 5 7 1025.5 - 0.0
23/09:15am 12.8 11.6 10.4 85 1.3 SSE 7 11 4 6 1025.5 - 0.0
23/09:00am 12.2 10.7 10.6 90 0.8 S 9 13 5 7 1025.5 - 0.0
23/08:45am 10.8 8.2 9.5 92 0.7 S 13 17 7 9 1025.4 - 0.0
23/08:30am 9.7 6.5 8.5 92 0.6 S 15 19 8 10 1025.3 - 0.0
23/08:15am 8.9 5.5 7.7 92 0.6 S 15 15 8 8 1025.2 - 0.0
23/08:00am 8.2 4.7 7.0 92 0.6 S 15 17 8 9 1025.1 - 0.0
23/07:45am 7.7 4.0 6.5 92 0.6 SSE 15 17 8 9 1025.0 - 0.0
23/07:30am 7.2 3.0 5.9 91 0.6 S 17 17 9 9 1024.8 - 0.0
23/07:15am 7.3 3.5 6.0 91 0.6 S 15 17 8 9 1024.7 - 0.0
23/07:00am 7.3 3.5 6.0 91 0.6 S 15 17 8 9 1024.5 - 0.0
23/06:45am 7.2 3.8 5.8 91 0.6 SSE 13 15 7 8 1024.3 - 0.0
23/06:30am 7.3 3.9 6.0 91 0.6 SSE 13 15 7 8 1024.2 - 0.0
23/06:15am 7.9 4.6 6.5 91 0.6 S 13 15 7 8 1024.0 - 0.0
23/06:00am 8.1 4.5 6.7 91 0.7 S 15 17 8 9 1023.8 - 0.0
23/05:45am 8.3 5.1 7.0 91 0.6 S 13 15 7 8 1023.7 - 0.0
23/05:30am 8.2 5.0 6.8 91 0.7 S 13 15 7 8 1023.7 - 0.0
23/05:15am 8.3 5.1 6.9 91 0.7 S 13 15 7 8 1023.6 - 0.0
23/05:00am 8.2 5.0 6.7 90 0.7 SSE 13 15 7 8 1023.5 - 0.0
23/04:45am 8.5 5.3 7.0 90 0.7 SSE 13 15 7 8 1023.4 - 0.0
23/04:30am 8.4 4.9 7.0 91 0.7 S 15 17 8 9 1023.4 - 0.0
23/04:15am 8.6 5.4 7.0 90 0.8 S 13 15 7 8 1023.3 - 0.0
23/04:00am 8.8 5.7 7.3 90 0.7 S 13 15 7 8 1023.4 - 0.0
23/03:45am 8.7 5.6 7.1 90 0.8 S 13 15 7 8 1023.4 - 0.0
23/03:30am 8.8 6.1 7.2 90 0.8 S 11 13 6 7 1023.4 - 0.0
23/03:15am 9.3 7.1 7.7 90 0.8 S 9 13 5 7 1023.6 - 0.0
23/03:00am 9.9 7.8 8.4 90 0.7 S 9 11 5 6 1023.8 - 0.0
23/02:45am 9.5 7.3 8.0 90 0.7 S 9 13 5 7 1023.9 - 0.0
23/02:30am 9.2 6.2 7.8 91 0.7 S 13 15 7 8 1024.0 - 0.0
23/02:15am 9.1 6.1 7.6 90 0.7 S 13 15 7 8 1024.0 - 0.0
23/02:00am 9.1 6.4 7.5 90 0.8 S 11 15 6 8 1024.1 - 0.0
23/01:45am 9.1 6.1 7.6 90 0.7 S 13 15 7 8 1024.2 - 0.0
23/01:30am 8.9 5.4 7.4 90 0.7 S 15 19 8 10 1024.2 - 0.0
23/01:15am 9.0 5.9 7.4 90 0.8 S 13 19 7 10 1024.2 - 0.0
23/01:00am 9.3 6.3 7.8 90 0.7 S 13 15 7 8 1024.2 - 0.0
23/12:45am 9.1 6.1 7.5 90 0.8 S 13 15 7 8 1024.2 - 0.0
23/12:30am 9.1 6.1 7.5 90 0.8 S 13 15 7 8 1024.2 - 0.0
23/12:15am 8.9 5.4 7.1 88 0.9 S 15 15 8 8 1024.3 - 0.0
23/12:00am 9.0 6.3 7.3 89 0.8 S 11 15 6 8 1024.5 - 0.0
 
Date/Time
EST
Temp
°C
App
Temp
°C
Dew
Point
Rel
Hum
%
Delta-T
°C
Wind Press
QNH
hPa
Press
MSL
hPa
Rain
since 9 am
mm
Dir
 
Spd
km/h
Gust
km/h
Spd
kts
Gust
kts
22/11:45pm 9.4 6.8 7.8 90 0.8 S 11 13 6 7 1024.5 - 0.0
22/11:30pm 9.0 5.9 7.2 88 0.9 S 13 15 7 8 1024.6 - 0.0
22/11:15pm 9.2 6.9 7.4 88 0.9 S 9 13 5 7 1024.7 - 0.0
22/11:00pm 9.0 7.2 7.1 88 0.9 SSE 6 7 3 4 1024.6 - 0.0
22/10:45pm 9.2 7.4 7.2 87 0.9 SSE 6 9 3 5 1024.6 - 0.0
22/10:30pm 10.2 8.7 8.3 88 0.9 SE 6 7 3 4 1024.5 - 0.0
22/10:15pm 10.5 9.1 8.8 89 0.8 SSE 6 9 3 5 1024.5 - 0.0
22/10:00pm 10.1 8.4 8.4 89 0.8 SE 7 9 4 5 1024.6 - 0.0
22/09:45pm 9.7 7.9 7.9 88 0.9 SE 7 9 4 5 1024.5 - 0.0
22/09:30pm 9.0 6.3 7.2 88 0.9 SE 11 15 6 8 1024.5 - 0.0
22/09:15pm 9.1 5.6 7.2 88 0.9 ESE 15 15 8 8 1024.5 - 0.0
22/09:00pm 9.2 5.7 7.1 87 1.0 ESE 15 15 8 8 1024.5 - 0.0
22/08:45pm 9.6 6.5 7.4 86 1.1 ESE 13 15 7 8 1024.6 - 0.0
22/08:30pm 10.0 7.4 7.7 86 1.1 ESE 11 13 6 7 1024.7 - 0.0
22/08:15pm 10.3 7.7 7.9 85 1.2 ESE 11 15 6 8 1024.7 - 0.0
22/08:00pm 10.5 7.9 7.9 84 1.3 ESE 11 15 6 8 1024.6 - 0.0
22/07:45pm 11.0 8.1 8.2 83 1.4 ESE 13 15 7 8 1024.5 - 0.0
22/07:30pm 11.4 8.6 8.5 82 1.4 SE 13 15 7 8 1024.4 - 0.0
22/07:15pm 11.7 9.0 8.8 82 1.5 SE 13 17 7 9 1024.2 - 0.0
22/07:00pm 11.7 9.0 8.8 82 1.5 SE 13 15 7 8 1024.0 - 0.0
22/06:45pm 11.9 9.2 9.0 82 1.5 SE 13 19 7 10 1023.9 - 0.0
22/06:30pm 12.0 9.0 9.1 82 1.5 SE 15 19 8 10 1023.7 - 0.0
22/06:15pm 12.1 9.1 9.1 82 1.5 SE 15 19 8 10 1023.6 - 0.0
22/06:00pm 12.3 9.6 9.1 81 1.6 SE 13 19 7 10 1023.5 - 0.0
22/05:45pm 12.5 10.2 9.1 80 1.7 SE 11 17 6 9 1023.3 - 0.0
22/05:30pm 12.9 10.7 9.3 79 1.8 SE 11 15 6 8 1023.3 - 0.0
22/05:15pm 13.2 10.6 9.4 78 1.9 SE 13 15 7 8 1023.2 - 0.0
22/05:00pm 13.7 11.5 9.4 75 2.2 SE 11 15 6 8 1023.0 - 0.0
22/04:45pm 14.2 11.7 9.6 74 2.4 SE 13 17 7 9 1022.9 - 0.0
22/04:30pm 14.4 11.9 9.6 73 2.5 SE 13 19 7 10 1022.9 - 0.0
22/04:15pm 14.7 12.2 9.6 71 2.6 ESE 13 17 7 9 1022.8 - 0.0
22/04:00pm 15.0 12.1 9.5 69 2.9 ESE 15 19 8 10 1022.7 - 0.0
22/03:45pm 15.4 12.8 9.2 66 3.2 ESE 13 17 7 9 1022.7 - 0.0
22/03:30pm 15.5 12.9 9.3 66 3.2 SE 13 17 7 9 1022.6 - 0.0
22/03:15pm 15.5 13.3 9.5 67 3.1 ESE 11 15 6 8 1022.6 - 0.0
22/03:00pm 15.1 13.0 9.6 69 2.9 ESE 11 17 6 9 1022.6 - 0.0
22/02:45pm 14.6 12.4 9.3 70 2.7 ESE 11 15 6 8 1022.5 - 0.0
22/02:30pm 14.8 12.1 9.1 68 2.9 SE 13 17 7 9 1022.5 - 0.0
22/02:15pm 15.5 12.9 9.5 67 3.1 ESE 13 19 7 10 1022.4 - 0.0
22/02:00pm 15.4 13.2 9.5 68 3.1 E 11 15 6 8 1022.5 - 0.0
22/01:45pm 14.5 12.6 9.0 69 2.8 ESE 9 13 5 7 1022.7 - 0.0
22/01:30pm 14.5 11.8 9.1 70 2.8 ESE 13 19 7 10 1022.7 - 0.0
22/01:15pm 14.6 11.2 9.0 69 2.9 ESE 17 20 9 11 1022.8 - 0.0
22/01:00pm 16.4 13.5 9.7 64 3.5 SSE 15 22 8 12 1022.8 - 0.0
22/12:45pm 16.9 14.9 8.6 58 4.3 ENE 9 15 5 8 1022.9 - 0.0
22/12:30pm 16.9 14.7 9.3 61 4.0 NE 11 17 6 9 1023.2 - 0.0
22/12:15pm 16.4 14.5 9.2 62 3.7 ENE 9 13 5 7 1023.6 - 0.0
22/12:00pm 14.6 13.1 9.3 70 2.7 ENE 7 13 4 7 1023.9 - 0.0
22/11:45am 14.2 12.7 9.0 71 2.7 ENE 7 13 4 7 1024.2 - 0.0
22/11:30am 14.3 12.9 8.9 70 2.8 ENE 6 9 3 5 1024.4 - 0.0
22/11:15am 14.7 13.3 9.0 68 2.9 E 6 9 3 5 1024.5 - 0.0
22/11:00am 15.2 13.8 9.6 69 2.9 SE 7 13 4 7 1024.6 - 0.0
22/10:45am 15.2 13.6 10.1 71 2.7 S 9 15 5 8 1024.9 - 0.0
22/10:30am 15.1 14.1 10.4 73 2.5 S 6 13 3 7 1025.1 - 0.0
22/10:15am 14.5 13.2 10.0 74 2.4 S 7 11 4 6 1025.1 - 0.0
22/10:00am 14.2 12.6 10.3 77 2.0 SSW 9 13 5 7 1025.2 - 0.0
22/09:45am 13.3 11.7 10.1 81 1.7 SW 9 15 5 8 1025.1 - 0.0
22/09:30am 12.7 10.3 10.2 85 1.3 WSW 13 19 7 10 1024.9 - 0.0
22/09:15am 12.4 10.1 10.4 88 1.0 WSW 13 19 7 10 1024.7 - 0.0
22/09:00am 12.6 11.3 11.1 91 0.8 WSW 9 15 5 8 1024.6 - 0.0
22/08:45am 12.2 9.7 11.1 93 0.6 WSW 15 17 8 9 1024.6 - 0.0
22/08:30am 9.8 7.8 8.8 93 0.5 SW 9 13 5 7 1024.7 - 0.0
22/08:15am 7.7 5.2 6.6 93 0.5 S 9 11 5 6 1024.8 - 0.0
22/08:00am 7.1 4.8 5.9 92 0.5 S 7 9 4 5 1024.7 - 0.0
22/07:45am 6.6 4.4 5.4 92 0.5 S 6 9 3 5 1024.7 - 0.0
22/07:30am 6.9 4.8 5.7 92 0.5 S 6 7 3 4 1024.6 - 0.0
22/07:15am 6.9 4.6 5.6 91 0.6 S 7 9 4 5 1024.5 - 0.0
22/07:00am 7.1 4.8 5.8 91 0.6 S 7 9 4 5 1024.3 - 0.0
22/06:45am 7.4 5.2 6.1 91 0.6 S 7 9 4 5 1024.2 - 0.0
22/06:30am 7.8 5.7 6.5 91 0.6 S 7 9 4 5 1024.1 - 0.0
22/06:15am 8.4 6.4 7.1 91 0.6 S 7 11 4 6 1024.0 - 0.0
22/06:00am 8.4 6.0 7.2 92 0.6 S 9 9 5 5 1023.8 - 0.0
22/05:45am 7.7 5.2 6.4 91 0.6 SSE 9 11 5 6 1023.7 - 0.0
22/05:30am 8.0 5.5 6.6 91 0.6 S 9 11 5 6 1023.5 - 0.0
22/05:15am 8.2 5.8 6.8 91 0.7 SSW 9 11 5 6 1023.3 - 0.0
22/05:00am 8.4 6.0 7.2 92 0.6 SSW 9 11 5 6 1023.2 - 0.0
22/04:45am 8.4 6.0 7.1 91 0.6 SSW 9 11 5 6 1023.3 - 0.0
22/04:30am 8.3 5.9 7.0 91 0.6 S 9 11 5 6 1023.3 - 0.0
22/04:15am 8.4 5.6 7.1 91 0.6 S 11 13 6 7 1023.3 - 0.0
22/04:00am 9.1 6.1 7.9 92 0.6 S 13 15 7 8 1023.2 - 0.0
22/03:45am 8.9 5.9 7.7 92 0.6 S 13 15 7 8 1023.2 - 0.0
22/03:30am 8.6 5.1 7.3 91 0.6 S 15 17 8 9 1023.2 - 0.0
22/03:15am 8.3 4.7 6.9 91 0.7 SSE 15 15 8 8 1023.3 - 0.0
22/03:00am 8.2 5.0 6.8 91 0.7 S 13 15 7 8 1023.4 - 0.0
22/02:45am 8.2 5.0 6.8 91 0.7 S 13 15 7 8 1023.4 - 0.0
22/02:30am 8.2 5.4 6.8 91 0.7 S 11 15 6 8 1023.5 - 0.0
22/02:15am 8.8 6.9 7.4 91 0.7 S 7 9 4 5 1023.6 - 0.0
22/02:00am 9.3 7.5 7.9 91 0.7 S 7 9 4 5 1023.7 - 0.0
22/01:45am 9.0 6.7 7.6 91 0.7 SSE 9 11 5 6 1023.8 - 0.0
22/01:30am 9.2 7.4 7.9 92 0.6 SE 7 9 4 5 1023.9 - 0.0
22/01:15am 9.1 6.9 7.8 92 0.6 SE 9 13 5 7 1024.0 - 0.0
22/01:00am 8.7 6.0 7.3 91 0.7 SE 11 13 6 7 1024.1 - 0.0
22/12:45am 8.7 6.0 7.3 91 0.7 SE 11 13 6 7 1024.2 - 0.0
22/12:30am 8.4 5.6 7.0 91 0.7 SSE 11 13 6 7 1024.2 - 0.0
22/12:15am 7.9 5.0 6.4 90 0.7 S 11 13 6 7 1024.2 - 0.0
22/12:00am 8.2 5.3 6.7 90 0.7 S 11 13 6 7 1024.3 - 0.0
 
Date/Time
EST
Temp
°C
App
Temp
°C
Dew
Point
Rel
Hum
%
Delta-T
°C
Wind Press
QNH
hPa
Press
MSL
hPa
Rain
since 9 am
mm
Dir
 
Spd
km/h
Gust
km/h
Spd
kts
Gust
kts
21/11:45pm 8.3 5.5 6.8 90 0.7 S 11 13 6 7 1024.3 - 0.0
21/11:30pm 8.3 5.1 6.8 90 0.7 SSE 13 15 7 8 1024.5 - 0.0
21/11:15pm 8.5 5.3 6.9 90 0.8 SSE 13 15 7 8 1024.6 - 0.0
21/11:00pm 9.0 6.3 7.4 90 0.8 S 11 15 6 8 1024.6 - 0.0
21/10:45pm 9.4 6.8 7.8 90 0.8 S 11 13 6 7 1024.6 - 0.0
21/10:30pm 9.4 6.8 7.8 90 0.8 S 11 13 6 7 1024.7 - 0.0
21/10:15pm 9.5 7.3 7.8 89 0.8 S 9 13 5 7 1024.7 - 0.0
21/10:00pm 10.0 8.3 8.3 89 0.8 S 7 9 4 5 1024.7 - 0.0
21/09:45pm 10.0 7.9 8.3 89 0.8 S 9 13 5 7 1024.7 - 0.0
21/09:30pm 10.1 7.6 8.4 89 0.8 SSE 11 13 6 7 1024.8 - 0.0
21/09:15pm 10.1 7.6 8.3 88 0.9 SSE 11 13 6 7 1024.8 - 0.0
21/09:00pm 10.1 7.6 8.2 88 0.9 SSE 11 13 6 7 1024.8 - 0.0
21/08:45pm 10.1 7.6 8.2 88 0.9 SSE 11 13 6 7 1024.8 - 0.0
21/08:30pm 10.4 8.0 8.5 88 0.9 SSE 11 13 6 7 1024.7 - 0.0
21/08:15pm 10.2 7.7 8.3 88 0.9 SSE 11 15 6 8 1024.6 - 0.0
21/08:00pm 10.3 7.8 8.2 87 1.0 SSE 11 15 6 8 1024.7 - 0.0
21/07:45pm 10.7 8.3 8.5 86 1.1 SSE 11 15 6 8 1024.6 - 0.0
21/07:30pm 11.0 8.3 8.8 86 1.1 SSE 13 15 7 8 1024.6 - 0.0
21/07:15pm 11.0 8.3 8.8 86 1.1 SSE 13 15 7 8 1024.5 - 0.0
21/07:00pm 10.9 8.1 8.7 86 1.1 SSE 13 15 7 8 1024.4 - 0.0
21/06:45pm 11.0 8.2 8.6 85 1.2 SSE 13 17 7 9 1024.3 - 0.0
21/06:30pm 11.4 8.7 8.8 84 1.3 SSE 13 15 7 8 1024.1 - 0.0
21/06:15pm 11.6 8.5 8.9 83 1.4 SSE 15 19 8 10 1024.1 - 0.0
21/06:00pm 11.8 9.1 9.0 83 1.4 SSE 13 15 7 8 1024.0 - 0.0
21/05:45pm 12.1 9.4 9.1 82 1.5 SSE 13 17 7 9 1023.9 - 0.0
21/05:30pm 12.3 9.6 9.1 81 1.6 SSE 13 17 7 9 1023.9 - 0.0
21/05:15pm 12.5 9.8 9.1 80 1.7 SSE 13 15 7 8 1023.9 - 0.0
21/05:00pm 12.8 10.2 9.2 79 1.8 SSE 13 19 7 10 1023.9 - 0.0
21/04:45pm 13.0 10.3 9.1 77 2.0 SSE 13 19 7 10 1023.9 - 0.0
21/04:30pm 13.2 10.5 9.0 75 2.1 SE 13 22 7 12 1023.8 - 0.0
21/04:15pm 13.5 10.0 8.8 73 2.4 SSE 17 20 9 11 1023.8 - 0.0
21/04:00pm 13.9 10.8 8.8 71 2.6 SE 15 22 8 12 1023.7 - 0.0
21/03:45pm 14.3 10.9 9.1 71 2.7 SE 17 22 9 12 1023.7 - 0.0
21/03:30pm 14.4 11.4 9.4 72 2.6 SE 15 20 8 11 1023.6 - 0.0
21/03:15pm 14.2 11.1 9.0 71 2.7 SE 15 24 8 13 1023.6 - 0.0
21/03:00pm 14.4 11.3 9.0 70 2.8 SE 15 22 8 12 1023.5 - 0.0
21/02:45pm 15.1 11.7 9.1 67 3.1 SE 17 22 9 12 1023.4 - 0.0
21/02:30pm 15.3 12.7 9.2 67 3.2 SE 13 20 7 11 1023.4 - 0.0
21/02:15pm 15.0 12.3 9.1 68 3.0 SE 13 22 7 12 1023.5 - 0.0
21/02:00pm 14.9 11.8 9.0 68 3.0 SE 15 22 8 12 1023.6 - 0.0
21/01:45pm 15.1 12.3 8.6 65 3.3 SE 13 20 7 11 1023.6 - 0.0
21/01:30pm 15.6 12.9 8.9 64 3.5 SE 13 20 7 11 1023.7 - 0.0
21/01:15pm 15.6 12.9 8.9 64 3.5 SSE 13 20 7 11 1023.7 - 0.0
21/01:00pm 15.3 12.6 9.0 66 3.2 SE 13 19 7 10 1023.9 - 0.0
21/12:45pm 14.7 12.3 8.7 67 3.1 SE 11 15 6 8 1024.3 - 0.0
21/12:30pm 15.1 12.6 8.3 64 3.4 SSE 11 17 6 9 1024.6 - 0.0
21/12:15pm 15.3 13.7 7.9 61 3.7 SSW 6 13 3 7 1024.9 - 0.0
21/12:00pm 15.5 13.8 8.2 62 3.7 S 7 13 4 7 1025.1 - 0.0
21/11:45am 15.4 13.4 8.6 64 3.5 S 9 15 5 8 1025.4 - 0.0
21/11:30am 15.3 13.6 8.5 64 3.5 S 7 13 4 7 1025.7 - 0.0
21/11:15am 15.2 13.6 8.2 63 3.5 SE 6 19 3 10 1026.0 - 0.0
21/11:00am 15.1 12.9 7.8 61 3.7 W 9 15 5 8 1026.2 - 0.0
21/10:45am 15.1 13.5 8.1 63 3.5 W 6 11 3 6 1026.4 - 0.0
21/10:30am 14.2 12.3 7.6 64 3.3 W 7 11 4 6 1026.5 - 0.0
21/10:15am 14.4 12.8 7.8 64 3.3 W 6 13 3 7 1026.6 - 0.0
21/10:00am 14.2 12.7 8.5 68 2.9 SSW 6 11 3 6 1026.7 - 0.0
21/09:45am 12.2 10.2 7.2 71 2.4 S 7 9 4 5 1026.8 - 0.0
21/09:30am 11.1 8.6 6.5 73 2.2 SSW 9 13 5 7 1026.9 - 0.0
21/09:15am 10.1 7.8 5.9 75 2.0 WSW 7 11 4 6 1026.9 - 0.0
21/09:00am 9.6 7.4 5.5 75 1.9 WSW 6 9 3 5 1026.9 - 0.0
21/08:45am 9.3 7.2 5.8 79 1.6 SW 6 9 3 5 1026.8 - 0.0
21/08:30am 8.8 6.2 6.0 82 1.3 S 9 15 5 8 1026.8 - 0.0
21/08:15am 7.4 3.0 5.0 85 1.1 S 17 19 9 10 1026.7 - 0.0
21/08:00am 6.2 1.2 3.8 85 1.0 S 19 19 10 10 1026.6 - 0.0
21/07:45am 5.8 1.5 3.4 84 1.0 S 15 17 8 9 1026.5 - 0.0
21/07:30am 5.8 1.5 3.3 84 1.1 S 15 17 8 9 1026.5 - 0.0
21/07:15am 5.8 1.5 3.0 82 1.2 S 15 17 8 9 1026.4 - 0.0
21/07:00am 6.1 2.5 3.2 82 1.2 S 11 15 6 8 1026.4 - 0.0
21/06:45am 6.3 2.7 3.2 80 1.3 SSW 11 13 6 7 1026.3 - 0.0
21/06:30am 6.5 3.0 3.3 80 1.4 SSW 11 13 6 7 1026.2 - 0.0
21/06:15am 6.7 2.5 3.6 80 1.3 SW 15 20 8 11 1026.2 - 0.0
21/06:00am 6.5 3.0 3.4 80 1.3 SSW 11 15 6 8 1026.3 - 0.0
21/05:45am 6.7 2.1 3.6 80 1.3 SW 17 22 9 12 1026.1 - 0.0
21/05:30am 7.0 1.8 3.8 80 1.4 SW 20 22 11 12 1025.9 - 0.0
21/05:15am 7.4 2.3 4.3 81 1.4 SW 20 26 11 14 1025.8 - 0.0
21/05:00am 7.4 2.6 4.6 82 1.2 WSW 19 26 10 14 1025.9 - 0.0
21/04:45am 7.3 4.4 4.7 83 1.1 SW 9 13 5 7 1025.8 - 0.0
21/04:30am 7.5 4.7 5.1 85 1.1 SSW 9 13 5 7 1025.7 - 0.0
21/04:15am 7.5 4.3 5.1 85 1.1 S 11 13 6 7 1025.6 - 0.0
21/04:00am 7.9 4.4 5.6 85 1.0 S 13 15 7 8 1025.4 - 0.0
21/03:45am 8.1 4.7 5.9 86 1.0 S 13 13 7 7 1025.4 - 0.0
21/03:30am 8.0 4.6 6.0 87 0.9 S 13 17 7 9 1025.4 - 0.0
21/03:15am 7.7 3.9 5.8 88 0.9 S 15 19 8 10 1025.4 - 0.0
21/03:00am 7.6 3.8 5.7 88 0.9 S 15 19 8 10 1025.5 - 0.0
21/02:45am 7.0 3.0 5.1 88 0.8 S 15 19 8 10 1025.5 - 0.0
21/02:30am 6.8 2.4 4.7 86 0.9 S 17 20 9 11 1025.6 - 0.0
21/02:15am 7.3 3.4 5.3 87 0.9 S 15 19 8 10 1025.8 - 0.0
21/02:00am 7.1 3.1 5.0 86 0.9 S 15 20 8 11 1025.8 - 0.0
21/01:45am 7.4 3.5 5.2 86 1.0 S 15 19 8 10 1025.8 - 0.0

Other Formats:

Comma delimited format used in spreadsheet applications
http://www.bom.gov.au/fwo/IDN60801/IDN60801.95757.axf

JavaScript Object Notation format (JSON) in row-major order
http://www.bom.gov.au/fwo/IDN60801/IDN60801.95757.json